createdAt,value
2017-12-03T00:00:54.743Z,43.97
2017-12-03T00:03:22.413Z,39.33
2017-12-03T00:05:50.069Z,40.73
2017-12-03T00:08:17.681Z,46.60
2017-12-03T00:10:45.357Z,42.25
2017-12-03T00:13:12.972Z,40.17
2017-12-03T00:15:41.370Z,39.45
2017-12-03T00:18:09.022Z,35.97
2017-12-03T00:20:36.685Z,41.72
2017-12-03T00:23:04.596Z,37.63
2017-12-03T00:25:32.419Z,44.57
2017-12-03T00:28:00.824Z,44.17
2017-12-03T00:30:28.442Z,26.02
2017-12-03T00:32:56.105Z,40.40
2017-12-03T00:35:23.725Z,38.70
2017-12-03T00:37:51.337Z,42.10
2017-12-03T00:40:19.029Z,38.77
2017-12-03T00:42:46.787Z,41.93
2017-12-03T00:45:14.474Z,43.80
2017-12-03T00:47:42.093Z,39.17
2017-12-03T00:50:09.753Z,43.08
2017-12-03T00:52:37.377Z,41.40
2017-12-03T00:55:05.045Z,38.83
2017-12-03T00:57:32.709Z,36.65
2017-12-03T01:00:01.089Z,39.97
2017-12-03T01:02:29.673Z,45.60
2017-12-03T01:04:57.321Z,40.75
2017-12-03T01:07:25.352Z,41.08
2017-12-03T01:09:52.996Z,36.45
2017-12-03T01:12:20.673Z,39.83
2017-12-03T01:14:48.315Z,42.70
2017-12-03T01:17:16.005Z,38.50
2017-12-03T01:19:43.697Z,38.38
2017-12-03T01:22:11.321Z,42.93
2017-12-03T01:24:38.980Z,37.27
2017-12-03T01:27:06.740Z,40.58
2017-12-03T01:29:34.383Z,35.93
2017-12-03T01:32:02.277Z,40.77
2017-12-03T01:34:29.905Z,43.40
2017-12-03T01:36:57.573Z,40.10
2017-12-03T01:39:25.205Z,41.83
2017-12-03T01:41:52.882Z,36.67
2017-12-03T01:44:20.524Z,37.73
2017-12-03T01:46:48.190Z,41.47
2017-12-03T01:49:15.886Z,39.25
2017-12-03T01:51:43.539Z,36.17
2017-12-03T01:54:11.209Z,42.63
2017-12-03T01:56:38.891Z,33.72
2017-12-03T01:59:06.579Z,37.43
2017-12-03T02:01:34.245Z,41.60
2017-12-03T02:04:01.873Z,36.55
2017-12-03T02:06:29.717Z,36.97
2017-12-03T02:08:57.415Z,39.40
2017-12-03T02:11:25.825Z,35.30
2017-12-03T02:13:53.449Z,36.57
2017-12-03T02:16:21.323Z,38.67
2017-12-03T02:18:48.957Z,41.30
2017-12-03T02:21:16.659Z,38.50
2017-12-03T02:23:44.309Z,39.60
2017-12-03T02:26:11.964Z,44.08
2017-12-03T02:28:39.597Z,39.00
2017-12-03T02:31:08.040Z,36.57
2017-12-03T02:33:35.707Z,42.17
2017-12-03T02:36:03.414Z,39.70
2017-12-03T02:38:31.066Z,42.85
2017-12-03T02:40:58.738Z,33.70
2017-12-03T02:43:27.140Z,33.50
2017-12-03T02:45:55.239Z,32.00
2017-12-03T02:48:22.938Z,36.10
2017-12-03T02:50:50.651Z,36.03
2017-12-03T02:53:18.437Z,37.00
2017-12-03T02:55:46.904Z,31.87
2017-12-03T02:58:14.581Z,36.40
2017-12-03T03:00:42.242Z,36.80
2017-12-03T03:03:10.177Z,30.23
2017-12-03T03:05:37.842Z,30.87
2017-12-03T03:08:05.639Z,25.67
2017-12-03T03:10:33.757Z,29.73
2017-12-03T03:13:01.632Z,31.80
2017-12-03T03:15:29.329Z,31.55
2017-12-03T03:17:56.966Z,31.33
2017-12-03T03:20:26.452Z,35.50
2017-12-03T03:22:54.136Z,29.48
2017-12-03T03:25:21.819Z,27.50
2017-12-03T03:27:49.517Z,32.57
2017-12-03T03:30:17.427Z,27.50
2017-12-03T03:32:45.115Z,25.23
2017-12-03T03:35:12.816Z,25.00
2017-12-03T03:37:40.490Z,27.13
2017-12-03T03:40:08.173Z,25.27
2017-12-03T03:42:35.869Z,23.23
2017-12-03T03:45:03.518Z,29.07
2017-12-03T03:47:31.209Z,24.52
2017-12-03T03:49:58.840Z,24.53
2017-12-03T03:52:26.591Z,28.67
2017-12-03T03:54:54.438Z,27.13
2017-12-03T03:57:22.201Z,21.90
2017-12-03T03:59:49.858Z,25.20
2017-12-03T04:02:17.696Z,25.50
2017-12-03T04:04:45.395Z,27.08
2017-12-03T04:07:13.068Z,23.70
2017-12-03T04:09:40.690Z,26.10
2017-12-03T04:12:08.880Z,23.60
2017-12-03T04:14:36.497Z,20.13
2017-12-03T04:17:04.945Z,22.00
2017-12-03T04:19:33.357Z,17.60
2017-12-03T04:22:01.089Z,24.57
2017-12-03T04:24:28.782Z,20.47
2017-12-03T04:26:56.424Z,25.52
2017-12-03T04:29:24.090Z,22.57
2017-12-03T04:31:52.514Z,20.50
2017-12-03T04:34:20.301Z,19.30
2017-12-03T04:36:47.980Z,20.93
2017-12-03T04:39:16.613Z,24.67
2017-12-03T04:41:44.349Z,21.40
2017-12-03T04:44:13.015Z,21.37
2017-12-03T04:46:41.527Z,15.00
2017-12-03T04:49:09.174Z,18.83
2017-12-03T04:51:37.638Z,15.37
2017-12-03T04:54:05.333Z,21.93
2017-12-03T04:56:33.042Z,12.90
2017-12-03T04:59:00.706Z,15.70
2017-12-03T05:01:28.421Z,19.00
2017-12-03T05:03:56.082Z,18.17
2017-12-03T05:06:23.785Z,16.53
2017-12-03T05:08:51.540Z,16.02
2017-12-03T05:11:19.262Z,20.10
2017-12-03T05:13:46.984Z,17.57
2017-12-03T05:16:15.597Z,15.10
2017-12-03T05:18:43.249Z,15.90
2017-12-03T05:21:11.773Z,13.88
2017-12-03T05:23:39.442Z,15.18
2017-12-03T05:26:07.499Z,14.65
2017-12-03T05:28:35.482Z,10.80
2017-12-03T05:31:03.242Z,16.85
2017-12-03T05:33:30.910Z,14.87
2017-12-03T05:35:58.616Z,12.63
2017-12-03T05:38:26.969Z,11.97
2017-12-03T05:40:54.669Z,13.05
2017-12-03T05:43:23.125Z,12.00
2017-12-03T05:45:50.830Z,17.57
2017-12-03T05:48:18.506Z,12.37
2017-12-03T05:50:46.917Z,12.85
2017-12-03T05:53:15.349Z,10.95
2017-12-03T05:55:42.998Z,10.80
2017-12-03T05:58:11.434Z,10.50
2017-12-03T06:00:39.906Z,12.50
2017-12-03T06:03:07.594Z,15.18
2017-12-03T06:05:35.276Z,12.80
2017-12-03T06:08:02.938Z,13.63
2017-12-03T06:10:31.676Z,14.72
2017-12-03T06:12:59.382Z,14.47
2017-12-03T06:15:27.090Z,11.63
2017-12-03T06:17:54.759Z,14.57
2017-12-03T06:20:23.608Z,17.10
2017-12-03T06:22:51.346Z,12.80
2017-12-03T06:25:19.012Z,12.97
2017-12-03T06:27:46.719Z,12.68
2017-12-03T06:30:14.379Z,13.63
2017-12-03T06:32:42.031Z,14.17
2017-12-03T06:35:10.046Z,12.70
2017-12-03T06:37:37.709Z,15.63
2017-12-03T06:40:05.781Z,14.77
2017-12-03T06:42:33.457Z,16.90
2017-12-03T06:45:01.085Z,11.97
2017-12-03T06:47:30.186Z,12.63
2017-12-03T06:49:57.846Z,13.43
2017-12-03T06:52:26.294Z,14.30
2017-12-03T06:54:54.861Z,16.80
2017-12-03T06:57:22.625Z,13.97
2017-12-03T06:59:50.341Z,13.27
2017-12-03T07:02:18.009Z,15.03
2017-12-03T07:04:45.874Z,18.20
2017-12-03T07:07:13.677Z,18.37
2017-12-03T07:09:41.328Z,16.40
2017-12-03T07:12:09.001Z,17.45
2017-12-03T07:14:36.689Z,15.77
2017-12-03T07:17:06.043Z,14.10
2017-12-03T07:19:33.772Z,14.80
2017-12-03T07:22:01.489Z,14.70
2017-12-03T07:24:29.150Z,15.10
2017-12-03T07:26:57.018Z,14.48
2017-12-03T07:29:25.080Z,12.98
2017-12-03T07:31:52.944Z,16.60
2017-12-03T07:34:20.647Z,16.30
2017-12-03T07:36:50.560Z,13.83
2017-12-03T07:39:20.098Z,12.97
2017-12-03T07:41:47.853Z,15.27
2017-12-03T07:44:15.574Z,10.00
2017-12-03T07:46:43.337Z,17.80
2017-12-03T07:49:11.261Z,15.77
2017-12-03T07:51:38.991Z,17.45
2017-12-03T07:54:07.688Z,15.10
2017-12-03T07:56:35.388Z,13.73
2017-12-03T07:59:03.069Z,12.98
2017-12-03T08:01:30.769Z,14.67
2017-12-03T08:03:58.410Z,15.67
2017-12-03T08:06:26.870Z,15.20
2017-12-03T08:08:55.325Z,17.57
2017-12-03T08:11:23.034Z,18.87
2017-12-03T08:13:50.751Z,15.63
2017-12-03T08:16:18.493Z,18.77
2017-12-03T08:18:46.205Z,16.67
2017-12-03T08:21:14.713Z,16.03
2017-12-03T08:23:42.405Z,18.50
2017-12-03T08:26:10.091Z,14.43
2017-12-03T08:28:38.074Z,13.70
2017-12-03T08:31:05.969Z,17.50
2017-12-03T08:33:33.758Z,16.87
2017-12-03T08:36:01.460Z,16.10
2017-12-03T08:38:30.347Z,17.33
2017-12-03T08:40:58.009Z,16.90
2017-12-03T08:43:25.731Z,16.63
2017-12-03T08:45:53.442Z,18.47
2017-12-03T08:48:21.871Z,16.25
2017-12-03T08:50:49.592Z,13.47
2017-12-03T08:53:17.310Z,17.53
2017-12-03T08:55:44.990Z,16.93
2017-12-03T08:58:12.694Z,15.63
2017-12-03T09:00:40.357Z,16.17
2017-12-03T09:03:08.068Z,17.37
2017-12-03T09:05:35.713Z,15.77
2017-12-03T09:08:03.448Z,15.83
2017-12-03T09:10:31.231Z,16.73
2017-12-03T09:12:58.977Z,15.70
2017-12-03T09:15:26.677Z,17.13
2017-12-03T09:17:54.573Z,20.80
2017-12-03T09:20:29.254Z,16.42
2017-12-03T09:22:59.482Z,16.25
2017-12-03T09:25:27.205Z,19.33
2017-12-03T09:27:54.961Z,12.10
2017-12-03T09:30:22.669Z,13.60
2017-12-03T09:32:50.460Z,17.10
2017-12-03T09:35:19.105Z,20.55
2017-12-03T09:37:46.957Z,16.60
2017-12-03T09:40:14.622Z,16.57
2017-12-03T09:42:42.464Z,16.50
2017-12-03T09:45:10.182Z,18.12
2017-12-03T09:47:37.869Z,16.23
2017-12-03T09:50:05.578Z,14.43
2017-12-03T09:52:33.291Z,14.67
2017-12-03T09:55:00.978Z,13.53
2017-12-03T09:57:28.672Z,14.27
2017-12-03T09:59:56.381Z,15.82
2017-12-03T10:02:24.092Z,16.00
2017-12-03T10:04:51.806Z,14.17
2017-12-03T10:07:19.723Z,13.40
2017-12-03T10:09:47.481Z,13.80
2017-12-03T10:12:17.669Z,15.70
2017-12-03T10:14:45.608Z,15.57
2017-12-03T10:17:13.330Z,15.27
2017-12-03T10:19:40.996Z,14.00
2017-12-03T10:22:08.663Z,12.95
2017-12-03T10:24:38.045Z,13.00
2017-12-03T10:27:06.436Z,15.50
2017-12-03T10:29:34.145Z,17.13
2017-12-03T10:32:02.493Z,12.87
2017-12-03T10:34:31.151Z,13.57
2017-12-03T10:36:58.842Z,12.90
2017-12-03T10:39:26.561Z,11.97
2017-12-03T10:41:54.216Z,14.37
2017-12-03T10:44:21.893Z,14.77
2017-12-03T10:46:49.598Z,14.07
2017-12-03T10:49:17.749Z,14.37
2017-12-03T10:51:45.827Z,12.08
2017-12-03T10:54:13.481Z,13.43
2017-12-03T10:56:41.205Z,12.03
2017-12-03T10:59:08.913Z,15.47
2017-12-03T11:01:37.529Z,17.20
2017-12-03T11:04:05.190Z,16.73
2017-12-03T11:06:32.857Z,19.83
2017-12-03T11:09:00.922Z,14.65
2017-12-03T11:11:28.542Z,20.13
2017-12-03T11:13:57.141Z,18.42
2017-12-03T11:16:24.997Z,19.25
2017-12-03T11:18:54.283Z,19.00
2017-12-03T11:21:22.042Z,16.60
2017-12-03T11:23:49.873Z,19.95
2017-12-03T11:26:17.550Z,17.50
2017-12-03T11:28:45.170Z,22.55
2017-12-03T11:31:12.854Z,21.23
2017-12-03T11:33:40.534Z,18.05
2017-12-03T11:36:08.149Z,17.60
2017-12-03T11:38:35.781Z,21.13
2017-12-03T11:41:04.438Z,20.67
2017-12-03T11:43:32.204Z,20.20
2017-12-03T11:45:59.816Z,20.70
2017-12-03T11:48:27.478Z,18.23
2017-12-03T11:50:55.202Z,18.47
2017-12-03T11:53:25.265Z,17.83
2017-12-03T11:55:52.874Z,22.23
2017-12-03T11:58:20.497Z,26.58
2017-12-03T12:00:48.161Z,25.43
2017-12-03T12:03:15.825Z,21.47
2017-12-03T12:05:43.442Z,22.87
2017-12-03T12:08:11.069Z,22.37
2017-12-03T12:10:38.724Z,27.17
2017-12-03T12:13:07.960Z,25.27
2017-12-03T12:15:35.604Z,29.42
2017-12-03T12:18:03.990Z,28.27
2017-12-03T12:20:31.689Z,27.30
2017-12-03T12:22:59.300Z,31.83
2017-12-03T12:25:26.986Z,26.80
2017-12-03T12:27:54.620Z,30.27
2017-12-03T12:30:22.450Z,34.90
2017-12-03T12:32:50.061Z,37.27
2017-12-03T12:35:18.037Z,33.13
2017-12-03T12:37:45.692Z,30.10
2017-12-03T12:40:13.733Z,33.28
2017-12-03T12:42:42.178Z,37.37
2017-12-03T12:45:09.863Z,36.03
2017-12-03T12:47:37.541Z,36.05
2017-12-03T12:50:05.246Z,37.15
2017-12-03T12:52:33.072Z,40.70
2017-12-03T12:55:01.005Z,32.95
2017-12-03T12:57:28.721Z,36.42
2017-12-03T12:59:56.434Z,34.63
2017-12-03T13:02:24.165Z,36.40
2017-12-03T13:04:52.054Z,39.53
2017-12-03T13:07:19.909Z,36.60
2017-12-03T13:09:47.521Z,33.88
2017-12-03T13:12:15.189Z,39.23
2017-12-03T13:14:43.108Z,36.22
2017-12-03T13:17:10.773Z,30.92
2017-12-03T13:19:38.438Z,36.50
2017-12-03T13:22:06.817Z,31.90
2017-12-03T13:24:35.245Z,29.83
2017-12-03T13:27:02.889Z,34.80
2017-12-03T13:29:31.314Z,35.10
2017-12-03T13:31:58.985Z,32.87
2017-12-03T13:34:26.602Z,29.12
2017-12-03T13:36:54.265Z,35.03
2017-12-03T13:39:21.872Z,30.73
2017-12-03T13:41:49.529Z,33.93
2017-12-03T13:44:17.478Z,31.83
2017-12-03T13:46:45.158Z,31.93
2017-12-03T13:49:14.950Z,43.33
2017-12-03T13:51:42.612Z,38.03
2017-12-03T13:54:10.225Z,40.97
2017-12-03T13:56:38.553Z,29.45
2017-12-03T13:59:06.227Z,30.23
2017-12-03T14:01:34.634Z,32.13
2017-12-03T14:04:03.089Z,31.63
2017-12-03T14:06:31.043Z,27.57
2017-12-03T14:08:58.702Z,30.00
2017-12-03T14:11:26.581Z,27.33
2017-12-03T14:13:54.442Z,25.13
2017-12-03T14:16:22.197Z,23.00
2017-12-03T14:18:49.857Z,23.75
2017-12-03T14:21:18.162Z,27.87
2017-12-03T14:23:46.833Z,26.20
2017-12-03T14:26:14.474Z,23.20
2017-12-03T14:28:42.298Z,26.17
2017-12-03T14:31:09.973Z,27.92
2017-12-03T14:33:37.584Z,25.17
2017-12-03T14:36:05.967Z,31.97
2017-12-03T14:38:34.421Z,26.20
2017-12-03T14:41:02.053Z,32.00
2017-12-03T14:43:29.667Z,40.03
2017-12-03T14:45:57.350Z,30.77
2017-12-03T14:48:25.004Z,29.63
2017-12-03T14:50:52.665Z,31.40
2017-12-03T14:53:20.277Z,32.00
2017-12-03T14:55:47.939Z,30.50
2017-12-03T14:58:15.589Z,36.33
2017-12-03T15:00:43.215Z,32.23
2017-12-03T15:03:10.882Z,36.03
2017-12-03T15:05:38.585Z,36.70
2017-12-03T15:08:06.256Z,32.47
2017-12-03T15:10:33.882Z,34.10
2017-12-03T15:13:02.826Z,34.92
2017-12-03T15:15:30.486Z,37.92
2017-12-03T15:17:59.012Z,36.38
2017-12-03T15:20:26.894Z,41.20
2017-12-03T15:22:54.598Z,34.90
2017-12-03T15:25:22.509Z,34.00
2017-12-03T15:27:50.171Z,33.63
2017-12-03T15:30:17.830Z,36.75
2017-12-03T15:32:45.781Z,33.57
2017-12-03T15:35:13.446Z,32.90
2017-12-03T15:37:41.124Z,30.33
2017-12-03T15:40:08.842Z,35.45
2017-12-03T15:42:36.905Z,37.07
2017-12-03T15:45:04.577Z,37.93
2017-12-03T15:47:32.246Z,37.47
2017-12-03T15:49:59.958Z,41.78
2017-12-03T15:52:28.207Z,32.00
2017-12-03T15:54:56.193Z,37.38
2017-12-03T15:57:23.862Z,36.53
2017-12-03T15:59:51.594Z,28.90
2017-12-03T16:02:19.330Z,34.73
2017-12-03T16:04:47.029Z,33.17
2017-12-03T16:07:14.749Z,27.92
2017-12-03T16:09:42.553Z,28.67
2017-12-03T16:12:10.250Z,35.60
2017-12-03T16:14:37.925Z,24.43
2017-12-03T16:17:05.562Z,30.73
2017-12-03T16:19:33.261Z,34.90
2017-12-03T16:22:00.929Z,27.67
2017-12-03T16:24:28.576Z,36.20
2017-12-03T16:26:56.272Z,35.20
2017-12-03T16:29:23.930Z,37.63
2017-12-03T16:31:51.637Z,37.97
2017-12-03T16:34:19.469Z,26.70
2017-12-03T16:36:47.240Z,30.23
2017-12-03T16:39:14.904Z,27.50
2017-12-03T16:41:42.557Z,24.48
2017-12-03T16:44:10.230Z,27.73
2017-12-03T16:46:38.551Z,30.80
2017-12-03T16:49:06.357Z,34.37
2017-12-03T16:51:34.010Z,24.52
2017-12-03T16:54:01.701Z,23.17
2017-12-03T16:56:29.369Z,23.47
2017-12-03T16:58:57.802Z,23.50
2017-12-03T17:01:25.516Z,23.50
2017-12-03T17:03:53.954Z,19.17
2017-12-03T17:06:21.589Z,22.33
2017-12-03T17:08:49.266Z,21.80
2017-12-03T17:11:16.881Z,15.47
2017-12-03T17:13:44.551Z,29.60
2017-12-03T17:16:12.245Z,19.70
2017-12-03T17:18:40.126Z,25.15
2017-12-03T17:21:07.755Z,21.00
2017-12-03T17:23:35.489Z,20.37
2017-12-03T17:26:03.225Z,23.30
2017-12-03T17:28:31.343Z,27.23
2017-12-03T17:31:00.889Z,24.42
2017-12-03T17:33:28.554Z,15.43
2017-12-03T17:35:58.033Z,19.40
2017-12-03T17:38:25.693Z,17.48
2017-12-03T17:40:53.354Z,18.52
2017-12-03T17:43:20.981Z,24.13
2017-12-03T17:45:48.650Z,18.12
2017-12-03T17:48:17.154Z,16.40
2017-12-03T17:50:44.814Z,15.02
2017-12-03T17:53:12.436Z,21.63
2017-12-03T17:55:40.097Z,23.47
2017-12-03T17:58:07.753Z,17.52
2017-12-03T18:00:36.133Z,16.83
2017-12-03T18:03:03.821Z,16.08
2017-12-03T18:05:31.429Z,15.07
2017-12-03T18:07:59.110Z,14.63
2017-12-03T18:10:26.727Z,10.18
2017-12-03T18:12:54.386Z,15.60
2017-12-03T18:15:22.041Z,16.83
2017-12-03T18:17:49.712Z,15.30
2017-12-03T18:20:17.638Z,19.90
2017-12-03T18:22:45.320Z,17.40
2017-12-03T18:25:12.958Z,20.50
2017-12-03T18:27:40.589Z,12.90
2017-12-03T18:30:08.265Z,15.90
2017-12-03T18:32:35.947Z,17.85
2017-12-03T18:35:03.594Z,11.70
2017-12-03T18:37:31.488Z,12.03
2017-12-03T18:39:59.271Z,11.90
2017-12-03T18:42:26.997Z,12.77
2017-12-03T18:44:54.645Z,13.50
2017-12-03T18:47:22.346Z,11.17
2017-12-03T18:49:50.081Z,10.43
2017-12-03T18:52:17.760Z,12.60
2017-12-03T18:54:45.469Z,13.90
2017-12-03T18:57:14.286Z,13.80
2017-12-03T18:59:41.949Z,11.52
2017-12-03T19:02:09.673Z,11.90
2017-12-03T19:04:38.124Z,11.13
2017-12-03T19:07:05.798Z,16.93
2017-12-03T19:09:33.549Z,11.60
2017-12-03T19:12:01.192Z,14.57
2017-12-03T19:14:28.851Z,14.00
2017-12-03T19:16:56.529Z,18.67
2017-12-03T19:19:24.286Z,16.05
2017-12-03T19:21:52.027Z,17.10
2017-12-03T19:24:19.903Z,14.77
2017-12-03T19:26:47.668Z,12.13
2017-12-03T19:29:16.765Z,13.73
2017-12-03T19:31:44.482Z,12.20
2017-12-03T19:34:12.214Z,14.85
2017-12-03T19:36:39.876Z,12.27
2017-12-03T19:39:07.569Z,13.60
2017-12-03T19:41:35.421Z,14.73
2017-12-03T19:44:05.291Z,14.30
2017-12-03T19:46:34.688Z,11.02
2017-12-03T19:49:02.385Z,12.35
2017-12-03T19:51:30.853Z,14.93
2017-12-03T19:53:59.265Z,17.93
2017-12-03T19:56:26.995Z,24.30
2017-12-03T20:01:19.024Z,19.00
2017-12-03T20:03:46.638Z,17.93
2017-12-03T20:06:14.518Z,15.50
2017-12-03T20:08:42.310Z,10.38
2017-12-03T20:11:09.954Z,14.13
2017-12-03T20:13:37.638Z,15.57
2017-12-03T20:16:05.282Z,15.00
2017-12-03T20:18:32.983Z,13.97
2017-12-03T20:21:01.442Z,19.20
2017-12-03T20:23:29.146Z,14.65
2017-12-03T20:25:56.835Z,13.90
2017-12-03T20:28:24.556Z,12.57
2017-12-03T20:30:53.068Z,14.43
2017-12-03T20:33:20.701Z,13.00
2017-12-03T20:35:48.661Z,21.17
2017-12-03T20:38:17.162Z,13.30
2017-12-03T20:40:44.855Z,18.07
2017-12-03T20:43:12.492Z,14.23
2017-12-03T20:45:40.190Z,15.73
2017-12-03T20:48:07.821Z,10.80
2017-12-03T20:50:35.549Z,18.48
2017-12-03T20:53:03.951Z,13.98
2017-12-03T20:55:31.574Z,13.57
2017-12-03T20:57:59.250Z,14.70
2017-12-03T21:00:29.733Z,23.43
2017-12-03T21:02:57.352Z,14.80
2017-12-03T21:05:25.050Z,19.30
2017-12-03T21:07:52.677Z,11.10
2017-12-03T21:10:20.391Z,12.07
2017-12-03T21:12:48.036Z,18.90
2017-12-03T21:15:15.753Z,17.73
2017-12-03T21:17:43.444Z,13.18
2017-12-03T21:20:11.073Z,12.13
2017-12-03T21:22:38.760Z,10.00
2017-12-03T21:25:06.414Z,8.98
2017-12-03T21:27:34.051Z,15.43
2017-12-03T21:30:01.862Z,14.43
2017-12-03T21:32:29.529Z,8.25
2017-12-03T21:34:57.177Z,9.47
2017-12-03T21:37:25.141Z,8.07
2017-12-03T21:39:52.826Z,10.90
2017-12-03T21:42:21.817Z,12.53
2017-12-03T21:44:49.497Z,7.15
2017-12-03T21:47:17.135Z,10.88
2017-12-03T21:49:44.789Z,11.30
2017-12-03T21:52:12.445Z,8.35
2017-12-03T21:54:40.105Z,6.90
2017-12-03T21:57:07.793Z,12.68
2017-12-03T21:59:35.452Z,7.87
2017-12-03T22:02:03.127Z,12.63
2017-12-03T22:04:31.506Z,14.87
2017-12-03T22:06:59.928Z,14.40
2017-12-03T22:09:27.542Z,15.83
2017-12-03T22:11:55.165Z,13.90
2017-12-03T22:14:22.825Z,15.27
2017-12-03T22:16:50.482Z,8.23
2017-12-03T22:19:18.106Z,14.13
2017-12-03T22:21:45.764Z,12.63
2017-12-03T22:24:13.534Z,10.75
2017-12-03T22:26:41.202Z,13.67
2017-12-03T22:29:08.817Z,13.37
2017-12-03T22:31:37.514Z,10.95
2017-12-03T22:34:05.950Z,15.83
2017-12-03T22:36:33.607Z,13.82
2017-12-03T22:39:01.265Z,13.57
2017-12-03T22:41:29.174Z,12.20
2017-12-03T22:43:57.602Z,14.07
2017-12-03T22:46:25.261Z,8.67
2017-12-03T22:48:52.901Z,11.63
2017-12-03T22:51:21.447Z,6.77
2017-12-03T22:53:49.879Z,10.60
2017-12-03T22:56:17.488Z,11.57
2017-12-03T22:58:45.551Z,8.27
2017-12-03T23:01:13.390Z,8.73
2017-12-03T23:03:41.074Z,9.80
2017-12-03T23:06:09.784Z,13.23
2017-12-03T23:08:37.399Z,7.33
2017-12-03T23:11:05.062Z,11.63
2017-12-03T23:13:32.819Z,8.90
2017-12-03T23:16:00.434Z,14.73
2017-12-03T23:18:28.046Z,11.90
2017-12-03T23:20:55.693Z,8.67
2017-12-03T23:23:23.343Z,8.00
2017-12-03T23:25:51.068Z,20.90
2017-12-03T23:28:18.738Z,11.32
2017-12-03T23:30:46.460Z,13.57
2017-12-03T23:33:14.149Z,9.03
2017-12-03T23:35:41.837Z,6.53
2017-12-03T23:38:09.474Z,5.20
2017-12-03T23:40:37.132Z,10.67
2017-12-03T23:43:04.858Z,9.20
2017-12-03T23:45:33.298Z,5.60
2017-12-03T23:50:25.995Z,9.73
2017-12-03T23:52:53.650Z,7.47
2017-12-03T23:55:21.596Z,12.68
2017-12-03T23:57:49.360Z,4.25
